Time;durP1;ratioP1;P1;durP2;ratioP2;P2;SDS_P1;SDS_P2;PMS_P1;PMS_P2;Temp;Humidity;BMP_temperature;BMP_pressure;BME280_temperature;BME280_humidity;BME280_pressure;Samples;Min_cycle;Max_cycle;Signal;HPM_P1;HPM_P2
2022/08/23 00:01:17;;;;;;;0.90;0.75;;;;;;;24.73;46.55;101370.81;5022604;28;20041;-42
2022/08/23 00:03:42;;;;;;;0.68;0.60;;;;;;;24.72;46.59;101369.94;5031144;28;20029;-47
2022/08/23 00:06:08;;;;;;;1.10;0.60;;;;;;;24.87;46.52;101391.63;5006147;28;20014;-42
2022/08/23 00:08:34;;;;;;;0.93;0.60;;;;;;;24.85;46.58;101389.13;5006989;28;20054;-45
2022/08/23 00:11:00;;;;;;;0.70;0.60;;;;;;;24.79;46.42;101372.75;5015160;28;20041;-42
2022/08/23 00:13:27;;;;;;;1.52;0.93;;;;;;;24.83;46.61;101385.75;4995749;28;20390;-43
2022/08/23 00:15:52;;;;;;;1.20;0.77;;;;;;;24.81;46.75;101378.84;5007346;28;20022;-43
2022/08/23 00:18:19;;;;;;;0.90;0.60;;;;;;;24.83;46.38;101380.31;5019680;28;20037;-43
2022/08/23 00:20:45;;;;;;;1.65;0.82;;;;;;;24.71;46.55;101364.72;5012843;28;20022;-45
2022/08/23 00:23:10;;;;;;;1.00;0.60;;;;;;;24.82;46.55;101375.06;5018471;28;20040;-43
2022/08/23 00:25:36;;;;;;;0.60;0.50;;;;;;;24.66;46.47;101355.28;5017961;28;20030;-42
2022/08/23 00:28:01;;;;;;;0.90;0.60;;;;;;;24.79;46.49;101372.75;5012263;28;20054;-43
2022/08/23 00:30:27;;;;;;;0.82;0.55;;;;;;;24.69;46.55;101352.16;5017273;28;20030;-45
2022/08/23 00:32:52;;;;;;;0.85;0.73;;;;;;;24.79;46.58;101372.75;5009406;28;20029;-42
2022/08/23 00:35:19;;;;;;;1.23;0.80;;;;;;;24.65;46.60;101350.03;5006088;28;20021;-42
2022/08/23 00:37:45;;;;;;;1.10;0.75;;;;;;;24.63;46.77;101346.66;5033398;28;20049;-44
2022/08/23 00:40:13;;;;;;;1.33;0.90;;;;;;;24.76;46.59;101363.09;5006319;28;20080;-44
2022/08/23 00:49:01;;;;;;;1.50;1.00;;;;;;;24.55;46.39;101334.06;5008706;28;20105;-42
2022/08/23 00:51:34;;;;;;;1.17;0.70;;;;;;;24.73;46.61;101360.78;5007977;28;20031;-43
2022/08/23 00:54:00;;;;;;;0.60;0.52;;;;;;;24.73;46.55;101360.78;5003513;28;20069;-43
2022/08/23 00:56:29;;;;;;;1.13;0.70;;;;;;;24.72;46.48;101364.50;5015059;28;20451;-47
2022/08/23 00:58:54;;;;;;;1.15;0.60;;;;;;;24.63;46.54;101350.22;5003739;28;20027;-47
2022/08/23 01:01:19;;;;;;;0.68;0.63;;;;;;;24.72;46.49;101372.66;5003156;28;20414;-47
2022/08/23 01:03:49;;;;;;;0.90;0.68;;;;;;;24.72;46.56;101367.22;4990088;28;20138;-45
2022/08/23 01:06:23;;;;;;;1.35;0.80;;;;;;;24.56;46.52;101338.47;5009072;28;20060;-41
2022/08/23 01:08:56;;;;;;;0.82;0.60;;;;;;;24.69;46.41;101356.78;5007387;28;20113;-41
2022/08/23 01:11:26;;;;;;;0.80;0.75;;;;;;;24.69;46.53;101360.31;4987442;28;20022;-43
2022/08/23 01:14:04;;;;;;;0.60;0.60;;;;;;;24.69;46.56;101364.94;4991342;28;20059;-42
2022/08/23 01:16:44;;;;;;;0.80;0.70;;;;;;;24.51;46.55;101335.50;5004452;28;20033;-42
2022/08/23 01:19:13;;;;;;;1.25;1.10;;;;;;;24.68;46.50;101371.41;5012819;28;20337;-42
2022/08/23 01:21:45;;;;;;;0.73;0.60;;;;;;;24.66;46.61;101374.31;5002548;28;20017;-42
2022/08/23 01:24:11;;;;;;;1.02;0.73;;;;;;;24.67;46.57;101377.84;5002481;28;20022;-43
2022/08/23 01:26:37;;;;;;;0.90;0.68;;;;;;;24.52;46.64;101342.59;5015680;28;20530;-45
2022/08/23 01:29:04;;;;;;;0.88;0.70;;;;;;;24.65;46.54;101372.63;4990229;28;20034;-44
2022/08/23 01:31:30;;;;;;;1.50;0.90;;;;;;;24.64;46.41;101376.38;4998519;28;20044;-43
2022/08/23 01:34:03;;;;;;;1.15;0.77;;;;;;;24.65;46.51;101372.63;5007811;28;20037;-45
2022/08/23 01:36:29;;;;;;;1.02;0.80;;;;;;;24.39;46.38;101332.47;5009874;28;20030;-42
2022/08/23 01:38:54;;;;;;;0.80;0.60;;;;;;;24.48;46.54;101351.34;5016062;28;20109;-42
2022/08/23 01:41:20;;;;;;;1.08;0.98;;;;;;;24.63;46.51;101379.28;5012814;28;20656;-44
2022/08/23 01:43:45;;;;;;;0.70;0.68;;;;;;;24.62;46.43;101374.91;5007933;28;20094;-42
2022/08/23 01:46:15;;;;;;;1.02;0.70;;;;;;;24.62;46.41;101366.75;5012843;28;20018;-42
2022/08/23 01:48:40;;;;;;;0.45;0.45;;;;;;;24.61;46.58;101368.63;5016290;28;20101;-44
2022/08/23 01:51:06;;;;;;;0.80;0.60;;;;;;;24.44;46.52;101342.75;5010018;28;20026;-42
2022/08/23 01:53:32;;;;;;;0.77;0.70;;;;;;;24.61;46.72;101375.94;5016479;28;20053;-43
2022/08/23 01:55:57;;;;;;;1.40;0.82;;;;;;;24.43;46.57;101349.22;5036704;28;20032;-42
2022/08/23 01:58:23;;;;;;;0.80;0.70;;;;;;;24.44;46.52;101354.44;4999987;28;20032;-43
2022/08/23 02:00:49;;;;;;;0.93;0.70;;;;;;;24.56;46.61;101373.81;5039013;28;20033;-41
2022/08/23 02:03:14;;;;;;;0.88;0.75;;;;;;;24.44;46.48;101357.16;5013101;28;20029;-42
2022/08/23 02:05:41;;;;;;;0.90;0.60;;;;;;;24.57;46.49;101374.66;5011041;28;20747;-42
2022/08/23 02:10:52;;;;;;;1.15;0.80;;;;;;;24.55;46.50;101366.69;5025769;28;20056;-42
2022/08/23 02:13:17;;;;;;;0.63;0.60;;;;;;;24.56;46.56;101376.53;5015468;28;20021;-44
2022/08/23 02:15:45;;;;;;;0.85;0.70;;;;;;;24.41;46.72;101362.16;5028352;28;20057;-44
2022/08/23 02:18:11;;;;;;;1.65;0.65;;;;;;;24.54;46.33;101375.84;4995396;28;20471;-43
2022/08/23 02:20:39;;;;;;;1.42;1.23;;;;;;;24.40;46.51;101363.19;5026304;28;20061;-43
2022/08/23 02:23:04;;;;;;;0.63;0.55;;;;;;;24.53;46.59;101367.91;5008786;28;20026;-43
2022/08/23 02:25:29;;;;;;;0.95;0.70;;;;;;;24.52;46.65;101369.78;5037630;28;20026;-44
2022/08/23 02:27:55;;;;;;;1.10;0.70;;;;;;;24.53;46.39;101366.03;5031197;28;20028;-42
2022/08/23 02:30:20;;;;;;;0.88;0.65;;;;;;;24.41;46.65;101349.41;5026624;28;20483;-46
2022/08/23 02:32:45;;;;;;;0.85;0.70;;;;;;;24.38;46.70;101335.34;5007900;28;20061;-41
2022/08/23 02:35:11;;;;;;;1.08;0.60;;;;;;;24.51;46.49;101361.81;5008623;28;20021;-41
2022/08/23 02:37:36;;;;;;;0.90;0.63;;;;;;;24.50;46.54;101363.69;4999892;28;20649;-41
2022/08/23 02:40:03;;;;;;;1.17;0.80;;;;;;;24.37;46.52;101347.22;5026334;28;20030;-43
2022/08/23 02:42:29;;;;;;;1.00;0.80;;;;;;;24.50;46.48;101360.13;5017005;28;20017;-42
2022/08/23 02:44:54;;;;;;;0.63;0.60;;;;;;;24.32;46.75;101334.22;5032553;28;20026;-42
2022/08/23 02:47:19;;;;;;;1.05;0.68;;;;;;;24.49;46.46;101363.91;5020808;28;20495;-45
2022/08/23 02:49:45;;;;;;;0.70;0.70;;;;;;;24.47;46.51;101358.66;5021097;28;20040;-44
2022/08/23 02:52:11;;;;;;;0.77;0.60;;;;;;;24.48;46.50;101363.06;5029985;28;20044;-42
2022/08/23 02:54:36;;;;;;;0.80;0.70;;;;;;;24.48;46.42;101362.22;5008575;28;20046;-42
2022/08/23 02:57:02;;;;;;;0.75;0.70;;;;;;;24.33;46.50;101338.63;5021848;28;20069;-42
2022/08/23 02:59:27;;;;;;;0.80;0.60;;;;;;;24.32;46.70;101341.53;5013399;28;20029;-43
2022/08/23 03:01:52;;;;;;;1.15;0.70;;;;;;;24.46;46.41;101364.28;5016452;28;20081;-41
2022/08/23 03:04:18;;;;;;;1.02;0.82;;;;;;;24.44;46.61;101359.88;5021891;28;20033;-42
2022/08/23 03:06:44;;;;;;;0.60;0.60;;;;;;;24.32;46.68;101341.53;5000718;28;20025;-43
2022/08/23 03:09:10;;;;;;;0.80;0.65;;;;;;;24.30;46.47;101343.59;5031702;28;20033;-44
2022/08/23 03:11:35;;;;;;;0.77;0.70;;;;;;;24.28;46.50;101341.09;5008156;28;20026;-42
2022/08/23 03:14:00;;;;;;;0.93;0.82;;;;;;;24.26;46.41;101340.44;5031851;28;20068;-41
2022/08/23 03:16:26;;;;;;;1.00;0.90;;;;;;;24.40;46.44;101355.88;5021129;28;20026;-41
2022/08/23 03:18:52;;;;;;;0.70;0.60;;;;;;;24.42;46.65;101359.25;5035151;28;20091;-42
2022/08/23 03:21:18;;;;;;;0.75;0.60;;;;;;;24.39;46.59;101354.19;5030781;28;20026;-43
2022/08/23 03:23:44;;;;;;;0.70;0.60;;;;;;;24.41;46.63;101371.13;5018362;28;20065;-41
2022/08/23 03:26:11;;;;;;;1.13;0.93;;;;;;;24.40;46.69;101374.91;5005215;28;20018;-42
2022/08/23 03:28:38;;;;;;;1.48;0.90;;;;;;;24.18;46.63;101346.00;4998335;28;20032;-43
2022/08/23 03:31:04;;;;;;;0.98;0.73;;;;;;;24.23;46.57;101340.84;5014273;28;20064;-41
2022/08/23 03:33:30;;;;;;;0.70;0.68;;;;;;;24.27;46.24;101353.00;5021677;28;20018;-44
2022/08/23 03:36:00;;;;;;;1.00;0.90;;;;;;;24.29;46.62;101369.09;5018005;28;20033;-45
2022/08/23 03:38:25;;;;;;;1.98;0.80;;;;;;;24.22;46.49;101358.19;5031322;28;20080;-42
2022/08/23 03:40:51;;;;;;;0.65;0.52;;;;;;;24.23;46.38;101359.00;5007617;28;20049;-43
2022/08/23 03:43:17;;;;;;;0.60;0.60;;;;;;;24.37;46.47;101379.84;4996870;28;20022;-44
2022/08/23 03:45:42;;;;;;;1.00;0.80;;;;;;;24.20;46.45;101350.19;5019353;28;20121;-43
2022/08/23 03:48:07;;;;;;;1.02;0.85;;;;;;;24.23;46.64;101361.72;5020937;28;20053;-42
2022/08/23 03:50:33;;;;;;;1.00;0.63;;;;;;;24.35;46.45;101390.91;5007555;28;20382;-42
2022/08/23 03:52:58;;;;;;;0.73;0.70;;;;;;;24.34;46.46;101386.53;5001113;28;20032;-44
2022/08/23 03:55:23;;;;;;;0.70;0.65;;;;;;;24.18;46.42;101363.16;5041794;28;20025;-43
2022/08/23 03:57:49;;;;;;;0.80;0.60;;;;;;;24.34;46.55;101391.97;5007002;28;20032;-43
2022/08/23 04:00:15;;;;;;;0.95;0.70;;;;;;;24.34;46.61;101393.81;5036209;28;20032;-44
2022/08/23 04:02:40;;;;;;;0.93;0.70;;;;;;;24.18;46.69;101374.03;5008789;28;20026;-42
2022/08/23 04:05:09;;;;;;;0.40;0.40;;;;;;;24.17;46.50;101366.91;5006693;28;20033;-43
2022/08/23 04:07:36;;;;;;;0.57;0.50;;;;;;;24.31;46.81;101394.22;5009362;28;20042;-42
2022/08/23 04:10:01;;;;;;;1.20;0.68;;;;;;;24.32;46.46;101404.88;5036806;28;20033;-42
2022/08/23 04:12:27;;;;;;;0.70;0.70;;;;;;;24.32;46.61;101393.19;5019988;28;20029;-43
2022/08/23 04:14:52;;;;;;;0.73;0.60;;;;;;;24.31;46.84;101389.63;5020442;28;20049;-42
2022/08/23 04:17:19;;;;;;;0.80;0.60;;;;;;;24.15;46.59;101368.97;5014430;28;20033;-41
2022/08/23 04:19:45;;;;;;;1.00;0.65;;;;;;;24.30;46.41;101392.50;5020274;28;20028;-42
2022/08/23 04:22:12;;;;;;;0.95;0.73;;;;;;;24.29;46.76;101391.69;5012741;28;20049;-42
2022/08/23 04:24:38;;;;;;;0.82;0.80;;;;;;;24.28;46.51;101394.59;5038319;28;20051;-43
2022/08/23 04:27:03;;;;;;;1.13;0.60;;;;;;;24.28;46.47;101394.59;5032011;28;20021;-43
2022/08/23 04:29:29;;;;;;;0.68;0.60;;;;;;;24.11;46.80;101364.09;5012702;28;20033;-41
2022/08/23 04:31:54;;;;;;;0.95;0.80;;;;;;;24.24;46.61;101388.69;5019022;28;20021;-44
2022/08/23 04:34:20;;;;;;;0.85;0.68;;;;;;;24.10;46.49;101362.44;5018383;28;20032;-43
2022/08/23 04:36:46;;;;;;;0.88;0.70;;;;;;;24.09;46.45;101368.91;5012667;28;20025;-43
2022/08/23 04:39:11;;;;;;;0.65;0.60;;;;;;;24.25;46.56;101401.25;5016386;28;20036;-44
2022/08/23 04:44:20;;;;;;;0.70;0.70;;;;;;;24.24;46.71;101405.00;5019557;28;20088;-45
2022/08/23 04:46:47;;;;;;;1.20;0.82;;;;;;;24.24;46.56;101410.44;5011464;28;20041;-45
2022/08/23 04:49:13;;;;;;;0.55;0.50;;;;;;;24.20;46.62;101401.81;5018748;28;20018;-46
2022/08/23 04:51:38;;;;;;;0.85;0.60;;;;;;;24.21;46.64;101410.81;5004087;28;20026;-44
2022/08/23 04:54:04;;;;;;;0.80;0.70;;;;;;;24.23;46.66;101411.47;5009252;28;20046;-44
2022/08/23 04:56:29;;;;;;;0.80;0.70;;;;;;;24.09;46.27;101391.47;5002974;28;20077;-43
2022/08/23 04:58:55;;;;;;;1.63;0.80;;;;;;;24.23;46.57;101416.06;5002493;28;20480;-44
2022/08/23 05:01:24;;;;;;;0.70;0.70;;;;;;;24.08;46.29;101391.66;5015710;28;20025;-45
2022/08/23 05:03:49;;;;;;;;;;;;;;;24.20;46.37;101420.00;5016689;28;20018;-42
2022/08/23 05:06:14;;;;;;;0.90;0.70;;;;;;;24.19;46.58;101421.88;5000950;28;19921;-43
2022/08/23 05:08:40;;;;;;;0.60;0.60;;;;;;;24.11;46.55;101408.41;4993809;28;20030;-42
2022/08/23 05:11:07;;;;;;;1.10;0.90;;;;;;;24.19;46.52;101424.59;5016203;28;20053;-42
2022/08/23 05:13:33;;;;;;;1.00;0.80;;;;;;;24.08;46.53;101411.50;5008767;28;20018;-44
2022/08/23 05:15:58;;;;;;;1.27;0.70;;;;;;;24.01;46.33;101402.44;5001900;28;20392;-42
2022/08/23 05:18:25;;;;;;;1.00;0.73;;;;;;;24.20;46.51;101426.28;5002476;28;20049;-47
2022/08/23 05:20:50;;;;;;;0.77;0.77;;;;;;;24.04;46.49;101410.19;5002261;28;20054;-41
2022/08/23 05:23:16;;;;;;;1.00;0.80;;;;;;;24.06;46.57;101413.59;5003552;28;20026;-43
2022/08/23 05:25:51;;;;;;;0.77;0.75;;;;;;;24.19;46.35;101434.63;5002605;28;20138;-43
2022/08/23 05:28:38;;;;;;;0.85;0.63;;;;;;;24.22;46.68;101441.56;5002473;28;20026;-45
2022/08/23 05:31:17;;;;;;;0.98;0.85;;;;;;;24.22;46.61;101441.56;5010159;28;20037;-43
2022/08/23 05:33:43;;;;;;;0.70;0.60;;;;;;;24.22;46.42;101444.28;4993127;28;20026;-43
2022/08/23 05:36:10;;;;;;;1.00;0.68;;;;;;;24.09;46.39;101423.25;4999274;28;20111;-42
2022/08/23 05:38:37;;;;;;;0.80;0.80;;;;;;;24.23;46.62;101451.41;4990943;28;20029;-42
2022/08/23 05:41:03;;;;;;;1.00;0.77;;;;;;;24.22;46.51;101449.72;5009896;28;20030;-45
2022/08/23 05:43:29;;;;;;;0.70;0.70;;;;;;;24.25;46.47;101458.31;5011725;28;20018;-43
2022/08/23 05:46:07;;;;;;;0.95;0.70;;;;;;;24.25;46.36;101450.16;4998817;28;20436;-43
2022/08/23 05:48:33;;;;;;;1.50;0.70;;;;;;;24.24;46.53;101453.06;4996071;28;20033;-41
2022/08/23 05:51:13;;;;;;;1.00;0.77;;;;;;;24.25;46.70;101458.31;5005354;28;20022;-42
2022/08/23 05:53:39;;;;;;;1.02;0.65;;;;;;;24.12;46.50;101437.25;5013444;28;20092;-42
2022/08/23 05:56:10;;;;;;;1.27;0.70;;;;;;;24.26;46.42;101456.47;5004138;28;20021;-43
2022/08/23 05:58:35;;;;;;;1.20;0.70;;;;;;;24.25;46.50;101462.91;5006066;28;20772;-42
2022/08/23 06:01:00;;;;;;;0.90;0.73;;;;;;;24.29;46.55;101461.50;5005356;28;20056;-44
2022/08/23 06:03:26;;;;;;;0.98;0.63;;;;;;;24.29;46.52;101470.47;5009412;28;20085;-41
2022/08/23 06:05:56;;;;;;;0.60;0.60;;;;;;;24.18;46.69;101443.81;5010361;28;20026;-43
2022/08/23 06:08:22;;;;;;;1.05;0.95;;;;;;;24.19;46.47;101453.66;5000236;28;20027;-45
2022/08/23 06:10:47;;;;;;;1.15;0.90;;;;;;;24.32;46.39;101483.69;5008299;28;20574;-43
2022/08/23 06:13:12;;;;;;;0.93;0.80;;;;;;;24.19;46.35;101453.66;5004014;28;20029;-43
2022/08/23 06:15:42;;;;;;;0.90;0.80;;;;;;;24.18;46.52;101450.09;5001979;28;20026;-41
2022/08/23 06:18:07;;;;;;;0.60;0.60;;;;;;;24.34;46.57;101472.63;5006681;28;20553;-41
2022/08/23 06:20:32;;;;;;;0.75;0.68;;;;;;;24.17;46.69;101448.41;5008167;28;20041;-44
2022/08/23 06:22:58;;;;;;;0.85;0.75;;;;;;;24.22;46.63;101453.28;5011104;28;20097;-41
2022/08/23 06:25:23;;;;;;;0.70;0.70;;;;;;;24.35;46.62;101475.16;5013122;28;20094;-43
2022/08/23 06:27:48;;;;;;;0.80;0.80;;;;;;;24.24;46.72;101459.34;5008267;28;20460;-42
2022/08/23 06:30:14;;;;;;;1.10;0.95;;;;;;;24.20;46.75;101461.59;5010721;28;20022;-41
2022/08/23 06:32:39;;;;;;;0.60;0.60;;;;;;;24.20;46.96;101453.44;5004276;28;20034;-41
2022/08/23 06:35:05;;;;;;;1.10;0.75;;;;;;;24.37;46.66;101480.41;5012486;28;20404;-41
2022/08/23 06:37:30;;;;;;;0.90;0.60;;;;;;;24.24;46.65;101458.50;5003746;28;20102;-45
2022/08/23 06:39:56;;;;;;;0.98;0.88;;;;;;;24.38;46.76;101484.84;5011803;28;20033;-42
2022/08/23 06:42:23;;;;;;;1.23;0.65;;;;;;;24.38;46.64;101476.69;5013947;28;20021;-41
2022/08/23 06:44:49;;;;;;;1.10;0.80;;;;;;;24.38;46.59;101476.69;4994777;28;20026;-41
2022/08/23 06:47:15;;;;;;;1.05;0.70;;;;;;;24.25;46.67;101460.19;5001315;28;20022;-41
2022/08/23 06:49:41;;;;;;;0.77;0.70;;;;;;;24.26;47.03;101459.19;5011767;28;20014;-44
2022/08/23 06:52:06;;;;;;;2.58;0.90;;;;;;;24.39;46.71;101483.81;5005041;28;20025;-41
2022/08/23 06:54:33;;;;;;;1.77;0.90;;;;;;;24.27;46.88;101458.97;5010449;28;20112;-41
2022/08/23 06:57:00;;;;;;;0.98;0.70;;;;;;;24.40;47.20;101485.50;5006698;28;20037;-40
2022/08/23 06:59:25;;;;;;;1.13;0.60;;;;;;;24.40;46.95;101486.34;5015830;28;20040;-40
2022/08/23 07:01:54;;;;;;;1.20;0.88;;;;;;;24.20;46.88;101442.59;5014027;28;20085;-41
2022/08/23 07:04:28;;;;;;;1.83;0.70;;;;;;;24.41;46.99;101473.59;5009502;28;20037;-43
2022/08/23 07:06:54;;;;;;;1.83;1.00;;;;;;;24.26;47.07;101445.59;5021519;28;20129;-44
2022/08/23 07:09:20;;;;;;;1.38;1.00;;;;;;;24.41;46.99;101474.41;5022170;28;20097;-44
2022/08/23 07:11:45;;;;;;;1.35;1.08;;;;;;;24.43;47.03;101477.81;5000859;28;20035;-40
2022/08/23 07:14:12;;;;;;;1.00;0.77;;;;;;;24.31;47.22;101463.00;5003907;28;20019;-42
2022/08/23 07:16:44;;;;;;;0.80;0.80;;;;;;;24.49;47.11;101489.78;4991930;28;20070;-51
2022/08/23 07:19:10;;;;;;;1.00;0.88;;;;;;;24.50;46.97;101487.91;4995192;28;20014;-50
2022/08/23 07:21:36;;;;;;;1.48;1.00;;;;;;;24.51;46.90;101489.56;5014457;28;20050;-45
2022/08/23 07:24:01;;;;;;;1.58;0.93;;;;;;;24.54;47.01;101486.47;5004751;28;20033;-52
2022/08/23 07:26:27;;;;;;;1.20;0.98;;;;;;;24.42;47.02;101461.66;5011984;28;20030;-45
2022/08/23 07:28:52;;;;;;;0.90;0.70;;;;;;;24.47;46.90;101469.25;5002365;28;20702;-44
2022/08/23 07:31:26;;;;;;;0.82;0.80;;;;;;;24.61;46.95;101482.81;5010633;28;20491;-50
2022/08/23 07:33:52;;;;;;;0.77;0.70;;;;;;;24.63;46.94;101485.31;5008213;28;20027;-47
2022/08/23 07:36:19;;;;;;;2.22;0.90;;;;;;;24.52;46.94;101470.38;5016391;28;20025;-46
2022/08/23 07:38:45;;;;;;;1.50;0.80;;;;;;;24.67;47.09;101489.34;5012029;28;20029;-47
2022/08/23 07:41:11;;;;;;;1.88;0.80;;;;;;;24.55;46.94;101466.41;4989443;28;20085;-53
2022/08/23 07:43:38;;;;;;;1.48;1.08;;;;;;;24.56;47.17;101466.25;5015854;28;20039;-48
2022/08/23 07:46:04;;;;;;;1.10;0.82;;;;;;;24.74;47.03;101494.88;5017766;28;20034;-43
2022/08/23 07:48:30;;;;;;;1.73;1.30;;;;;;;24.70;46.95;101491.69;4998978;28;20022;-39
2022/08/23 07:50:59;;;;;;;1.35;1.05;;;;;;;24.65;47.14;101480.56;5008863;28;20022;-41
2022/08/23 07:53:25;;;;;;;1.00;0.82;;;;;;;24.80;47.09;101502.22;5002016;28;20038;-45
2022/08/23 07:55:51;;;;;;;1.05;0.95;;;;;;;24.61;47.07;101471.09;4996086;28;20026;-39
2022/08/23 07:58:16;;;;;;;1.38;1.13;;;;;;;24.83;47.00;101499.13;5014921;28;20033;-41
2022/08/23 08:00:42;;;;;;;1.42;1.10;;;;;;;24.71;46.98;101482.47;5000821;28;20038;-43
2022/08/23 08:03:08;;;;;;;1.63;1.38;;;;;;;24.87;46.97;101503.16;5019499;28;20037;-43
2022/08/23 08:05:34;;;;;;;1.20;1.10;;;;;;;24.88;46.96;101510.28;4996199;28;20058;-51
2022/08/23 08:08:00;;;;;;;1.52;1.13;;;;;;;24.90;46.87;101514.50;5015477;28;20085;-46
2022/08/23 08:10:26;;;;;;;1.50;1.20;;;;;;;24.86;46.85;101496.03;5000089;28;20041;-42
2022/08/23 08:12:51;;;;;;;3.05;1.38;;;;;;;24.90;47.04;101511.78;5002275;28;20018;-44
2022/08/23 08:15:17;;;;;;;1.38;1.10;;;;;;;24.91;46.86;101509.91;5017673;28;20544;-43
2022/08/23 08:17:46;;;;;;;1.73;1.00;;;;;;;24.91;47.14;101516.16;5018283;28;20034;-50
2022/08/23 08:20:11;;;;;;;;;;;;;;;24.87;47.11;101509.44;4999442;28;20356;-43
2022/08/23 08:22:36;;;;;;;2.13;1.20;;;;;;;24.87;47.12;101514.03;5018161;28;19981;-48
2022/08/23 08:25:02;;;;;;;1.50;1.27;;;;;;;24.87;46.94;101514.03;5016085;28;20086;-45
2022/08/23 08:27:28;;;;;;;2.45;1.40;;;;;;;24.88;47.17;101515.72;5017559;28;20434;-48
2022/08/23 08:29:54;;;;;;;1.50;1.00;;;;;;;24.78;47.30;101491.56;5014235;28;20441;-46
2022/08/23 08:32:19;;;;;;;3.05;1.40;;;;;;;24.92;47.20;101515.13;5019224;28;20026;-43
2022/08/23 08:34:44;;;;;;;1.42;1.30;;;;;;;24.91;47.34;101509.91;5015101;28;20068;-43
2022/08/23 08:37:10;;;;;;;1.67;1.10;;;;;;;25.04;47.46;101518.19;5003157;28;20026;-46
2022/08/23 08:39:35;;;;;;;3.20;1.58;;;;;;;25.17;47.98;101525.66;5021161;28;20048;-54
2022/08/23 08:42:22;;;;;;;2.53;1.00;;;;;;;25.29;47.13;101524.09;5015730;28;20030;-52
2022/08/23 08:45:04;;;;;;;1.63;1.52;;;;;;;25.32;47.01;101499.22;5014599;28;20468;-53
2022/08/23 08:47:39;;;;;;;1.13;0.93;;;;;;;25.60;46.88;101522.88;5000871;28;20096;-50
2022/08/23 08:50:04;;;;;;;1.83;1.48;;;;;;;25.70;46.38;101515.22;5013226;28;20022;-46
2022/08/23 08:52:34;;;;;;;1.52;1.20;;;;;;;25.79;46.31;101522.19;5017861;28;20033;-43
2022/08/23 08:55:09;;;;;;;2.70;1.50;;;;;;;25.91;46.10;101523.34;5037998;28;20057;-46
2022/08/23 08:57:41;;;;;;;1.45;1.23;;;;;;;26.01;45.86;101522.13;5005347;28;20018;-49
2022/08/23 09:00:13;;;;;;;1.20;1.10;;;;;;;26.11;45.72;101523.41;4992949;28;20037;-46
2022/08/23 09:02:40;;;;;;;1.60;1.20;;;;;;;26.18;45.30;101512.56;5020585;28;20390;-44
2022/08/23 09:05:10;;;;;;;2.63;1.38;;;;;;;26.30;45.09;101524.56;5002410;28;20030;-42
2022/08/23 09:07:48;;;;;;;1.67;1.40;;;;;;;26.27;44.95;101516.78;5003196;28;20446;-39
2022/08/23 09:10:28;;;;;;;1.60;1.27;;;;;;;26.10;44.93;101502.66;5019302;28;20028;-47
2022/08/23 09:13:33;;;;;;;3.88;2.17;;;;;;;26.05;44.92;101517.94;5006050;28;20497;-44
2022/08/23 09:16:20;;;;;;;1.77;1.27;;;;;;;25.93;45.02;101523.13;4996918;28;20136;-46
2022/08/23 09:18:45;;;;;;;1.35;1.05;;;;;;;25.76;45.18;101511.66;5034113;28;20057;-45
2022/08/23 09:21:11;;;;;;;2.10;0.90;;;;;;;25.77;45.28;101526.16;5016240;28;20041;-43
2022/08/23 09:23:41;;;;;;;2.10;1.30;;;;;;;25.73;45.31;101527.56;5004436;28;20014;-46
2022/08/23 09:26:29;;;;;;;1.50;1.10;;;;;;;25.65;45.53;101515.78;5015190;28;20022;-43
2022/08/23 09:28:59;;;;;;;1.88;1.23;;;;;;;25.63;45.58;101523.31;5011754;28;20029;-45
2022/08/23 09:31:38;;;;;;;1.27;1.10;;;;;;;25.60;45.41;101520.97;5018465;28;20034;-44
2022/08/23 09:34:04;;;;;;;1.88;1.25;;;;;;;25.52;45.59;101514.84;5032100;28;20153;-43
2022/08/23 09:36:32;;;;;;;1.25;1.00;;;;;;;25.56;45.58;101516.97;5015332;28;20024;-49
2022/08/23 09:39:00;;;;;;;1.45;1.10;;;;;;;25.54;45.59;101504.59;4997921;28;20030;-49
2022/08/23 09:41:31;;;;;;;1.52;0.80;;;;;;;25.54;45.39;101516.34;5010821;28;20036;-43
2022/08/23 09:44:00;;;;;;;1.08;0.90;;;;;;;25.54;45.82;101510.06;4993931;28;20033;-47
2022/08/23 09:46:27;;;;;;;;;;;;;;;25.50;45.83;101508.78;5003889;28;20028;-45
2022/08/23 09:49:00;;;;;;;2.22;1.30;;;;;;;25.36;45.78;101484.16;5015344;28;19908;-47
2022/08/23 09:51:32;;;;;;;1.05;0.88;;;;;;;25.52;45.72;101509.41;4998039;28;20049;-52
2022/08/23 09:54:12;;;;;;;1.02;0.77;;;;;;;25.53;45.78;101508.34;5017728;28;20629;-48
2022/08/23 09:56:42;;;;;;;2.45;1.10;;;;;;;25.53;45.75;101508.34;5007638;28;20038;-46
2022/08/23 09:59:26;;;;;;;2.28;1.30;;;;;;;25.55;45.64;101515.28;5007918;28;20025;-45
2022/08/23 10:01:53;;;;;;;1.30;0.95;;;;;;;25.34;45.73;101486.22;5031016;28;20041;-41
2022/08/23 10:04:28;;;;;;;1.17;0.90;;;;;;;25.55;45.69;101515.28;5004359;28;20573;-41
2022/08/23 10:06:54;;;;;;;1.05;0.90;;;;;;;25.54;45.82;101507.34;5036958;28;20577;-45
2022/08/23 10:09:29;;;;;;;1.85;1.02;;;;;;;25.56;45.96;101510.69;4998447;28;20030;-43
2022/08/23 10:11:56;;;;;;;1.55;1.10;;;;;;;25.55;45.87;101504.41;4999796;28;20033;-47
2022/08/23 10:14:23;;;;;;;0.93;0.80;;;;;;;25.58;45.72;101500.44;5026433;28;20050;-45
2022/08/23 10:17:00;;;;;;;1.88;0.90;;;;;;;25.47;45.81;101481.94;5014322;28;20037;-49
2022/08/23 10:19:33;;;;;;;1.30;0.90;;;;;;;25.61;45.76;101500.88;5038627;28;20045;-46
2022/08/23 10:22:18;;;;;;;1.60;0.80;;;;;;;25.65;45.72;101495.88;5016911;28;20042;-46
2022/08/23 10:24:50;;;;;;;1.10;0.90;;;;;;;25.65;45.76;101487.69;5008795;28;20029;-54
2022/08/23 10:30:22;;;;;;;1.20;0.90;;;;;;;25.69;45.65;101495.28;5013114;28;20223;-42
2022/08/23 10:32:54;;;;;;;1.27;0.90;;;;;;;25.71;45.55;101492.38;4995164;28;20168;-44
2022/08/23 10:35:55;;;;;;;1.80;1.10;;;;;;;25.74;45.42;101491.94;5017376;28;20025;-45
2022/08/23 10:38:31;;;;;;;1.15;0.90;;;;;;;25.76;45.60;101480.88;5022306;28;20061;-47
2022/08/23 10:41:29;;;;;;;1.35;0.95;;;;;;;25.77;45.50;101477.13;5013991;28;20021;-44
2022/08/23 10:44:13;;;;;;;1.00;0.80;;;;;;;25.77;45.53;101477.97;4949687;29;20067;-43
2022/08/23 10:46:49;;;;;;;1.08;0.93;;;;;;;25.77;45.45;101486.13;4947149;29;20034;-47
2022/08/23 10:49:15;;;;;;;2.13;0.80;;;;;;;25.78;45.64;101482.38;4943375;29;20028;-44
2022/08/23 10:51:45;;;;;;;1.38;1.00;;;;;;;25.79;45.51;101477.78;4930315;29;20119;-42
2022/08/23 10:54:17;;;;;;;1.23;1.08;;;;;;;25.82;45.42;101482.81;4939921;29;20063;-44
2022/08/23 10:56:43;;;;;;;1.23;0.93;;;;;;;25.82;45.45;101475.47;4951176;29;20063;-43
2022/08/23 10:59:13;;;;;;;1.58;1.20;;;;;;;25.68;45.55;101450.03;4931545;29;20020;-45
2022/08/23 11:02:24;;;;;;;1.65;1.08;;;;;;;25.69;45.50;101450.84;4921027;29;20036;-43
2022/08/23 11:04:50;;;;;;;1.20;0.90;;;;;;;25.83;45.54;101473.63;4949111;29;20115;-42
2022/08/23 11:07:18;;;;;;;1.73;1.10;;;;;;;25.69;45.43;101450.84;4936211;29;20791;-42
2022/08/23 11:09:49;;;;;;;1.58;0.95;;;;;;;25.81;45.30;101471.06;4926014;29;20035;-44
2022/08/23 11:12:21;;;;;;;1.30;1.10;;;;;;;25.80;45.31;101463.13;4952885;29;20034;-46
2022/08/23 11:14:48;;;;;;;1.75;1.10;;;;;;;25.80;45.45;101468.56;4943257;29;20464;-47
2022/08/23 11:17:52;;;;;;;1.55;1.13;;;;;;;25.80;45.48;101468.56;4936300;29;20042;-42
2022/08/23 11:20:49;;;;;;;1.25;1.10;;;;;;;25.80;45.37;101471.28;4991104;28;20503;-49
2022/08/23 11:23:17;;;;;;;1.35;1.10;;;;;;;25.78;45.27;101468.75;5037577;28;20041;-48
2022/08/23 11:25:44;;;;;;;1.77;1.20;;;;;;;25.78;45.37;101476.06;5016346;28;20049;-47
2022/08/23 11:28:22;;;;;;;2.10;1.20;;;;;;;25.66;45.45;101459.44;5015229;28;20028;-46
2022/08/23 11:30:51;;;;;;;1.50;1.02;;;;;;;25.75;45.55;101474.59;5013025;28;20176;-44
2022/08/23 11:33:42;;;;;;;1.60;1.17;;;;;;;25.60;45.49;101450.19;5011150;28;20021;-44
2022/08/23 11:36:07;;;;;;;2.15;1.45;;;;;;;25.74;45.63;101466.59;5026463;28;20041;-43
2022/08/23 11:38:42;;;;;;;1.58;1.10;;;;;;;25.76;45.12;101475.41;5036099;28;20022;-46
2022/08/23 11:41:20;;;;;;;1.52;1.10;;;;;;;25.77;45.52;101483.41;5013036;28;20030;-47
2022/08/23 11:43:48;;;;;;;1.90;1.42;;;;;;;25.52;45.46;101441.31;5014981;28;20033;-49
2022/08/23 11:46:26;;;;;;;1.73;1.20;;;;;;;25.80;45.46;101482.19;4997442;28;20108;-50
2022/08/23 11:49:19;;;;;;;1.58;1.10;;;;;;;25.79;45.59;101478.63;5030245;28;20259;-45